Time;durP1;ratioP1;P1;durP2;ratioP2;P2;SDS_P1;SDS_P2;PMS_P1;PMS_P2;Temp;Humidity;BMP_temperature;BMP_pressure;BME280_temperature;BME280_humidity;BME280_pressure;Samples;Min_cycle;Max_cycle;Signal;HPM_P1;HPM_P2
2023/05/08 00:00:09;;;;;;;;;;;12.90;42.70;;;11.81;44.71;102321.91;12253347;19;20386;-86
2023/05/08 00:04:12;;;;;;;;;;;12.90;42.80;;;11.70;44.64;102313.56;12251247;19;19936;-85
2023/05/08 00:08:13;;;;;;;;;;;12.80;42.70;;;11.68;44.81;102312.75;12252021;19;20324;-86
2023/05/08 00:12:15;;;;;;;;;;;12.80;42.80;;;11.53;44.98;102303.69;12251463;19;19922;-86
2023/05/08 00:16:17;;;;;;;;;;;12.70;42.80;;;11.56;44.91;102319.28;12248684;19;20398;-85
2023/05/08 00:20:18;;;;;;;;;;;12.70;43.00;;;11.44;44.69;102315.28;12252088;19;19910;-86
2023/05/08 00:24:20;;;;;;;;;;;12.60;42.80;;;11.35;44.98;102310.38;12249588;19;19926;-86
2023/05/08 00:28:21;;;;;;;;;;;12.50;42.80;;;11.17;45.04;102305.72;12251644;19;19917;-86
2023/05/08 00:32:23;;;;;;;;;;;12.40;42.80;;;11.24;44.90;102329.03;12249729;19;19919;-86
2023/05/08 00:36:26;;;;;;;;;;;12.40;43.00;;;11.18;44.99;102334.47;12249746;19;19922;-86
2023/05/08 00:40:28;;;;;;;;;;;12.30;43.20;;;11.03;45.22;102314.00;12252834;19;19975;-86
2023/05/08 00:44:29;;;;;;;;;;;12.20;43.10;;;11.01;45.15;102316.66;12250343;19;19950;-86
2023/05/08 00:48:33;;;;;;;;;;;12.30;43.40;;;10.95;45.25;102319.47;12250537;19;19923;-86
2023/05/08 00:52:35;;;;;;;;;;;12.10;43.20;;;10.95;45.22;102323.84;12251197;19;19923;-86
2023/05/08 00:56:37;;;;;;;;;;;12.10;43.30;;;10.88;45.32;102325.78;12248362;19;19926;-86
2023/05/08 01:00:41;;;;;;;;;;;12.00;43.20;;;10.88;45.26;102330.16;12251622;19;20265;-86
2023/05/08 01:04:44;;;;;;;;;;;12.10;43.30;;;10.82;45.30;102321.59;12247517;19;19919;-86
2023/05/08 01:08:46;;;;;;;;;;;12.00;43.20;;;10.90;45.20;102330.97;12248299;19;19936;-86
2023/05/08 01:13:17;;;;;;;;;;;12.00;43.30;;;10.90;45.29;102344.91;12249839;19;19928;-86
2023/05/08 01:17:56;;;;;;;;;;;12.00;43.30;;;10.90;45.22;102341.44;12246801;19;19922;-86
2023/05/08 01:22:30;;;;;;;;;;;12.00;43.30;;;10.84;45.29;102350.31;12250752;19;19919;-86
2023/05/08 01:26:37;;;;;;;;;;;12.00;43.20;;;10.80;45.26;102343.47;12247029;19;20249;-86
2023/05/08 01:30:54;;;;;;;;;;;11.90;43.10;;;10.75;45.29;102353.22;12249490;19;19915;-85
2023/05/08 01:35:15;;;;;;;;;;;11.90;43.00;;;10.70;45.33;102352.50;12240344;19;19948;-86
2023/05/08 01:39:20;;;;;;;;;;;11.80;43.10;;;10.62;45.39;102345.72;12247804;19;19911;-86
2023/05/08 01:43:32;;;;;;;;;;;11.80;43.10;;;10.54;45.43;102332.03;12245552;19;19922;-86
2023/05/08 01:47:36;;;;;;;;;;;11.80;43.10;;;10.55;45.48;102343.34;12244482;19;19915;-86
2023/05/08 01:51:43;;;;;;;;;;;11.70;43.10;;;10.52;45.41;102354.72;12248723;19;19919;-86
2023/05/08 01:55:47;;;;;;;;;;;11.70;43.00;;;10.40;45.30;102344.66;12246474;19;20326;-86
2023/05/08 01:59:50;;;;;;;;;;;11.60;43.00;;;10.37;45.43;102360.41;12252984;19;19919;-86
2023/05/08 02:03:53;;;;;;;;;;;11.60;43.00;;;10.26;45.46;102350.22;12256794;19;19919;-85
2023/05/08 02:07:54;;;;;;;;;;;11.50;43.10;;;10.23;45.56;102358.13;12253076;19;19919;-85
2023/05/08 02:11:58;;;;;;;;;;;11.40;43.10;;;10.15;45.54;102345.31;12258703;19;19927;-86
2023/05/08 02:16:00;;;;;;;;;;;11.40;43.10;;;10.13;45.47;102347.09;12256118;19;19948;-86
2023/05/08 02:20:02;;;;;;;;;;;11.30;43.00;;;10.01;45.41;102338.72;12258107;19;20003;-86
2023/05/08 02:24:05;;;;;;;;;;;11.30;43.10;;;9.80;45.44;102317.50;12255591;19;19915;-85
2023/05/08 02:28:07;;;;;;;;;;;11.30;43.10;;;9.95;45.58;102347.56;12252781;19;20362;-86
2023/05/08 02:32:09;;;;;;;;;;;11.20;43.10;;;9.89;45.43;102338.16;12259862;19;19914;-86
2023/05/08 02:36:14;;;;;;;;;;;11.20;43.20;;;9.93;45.65;102346.75;12254832;19;19952;-86
2023/05/08 02:40:17;;;;;;;;;;;11.10;43.10;;;9.85;45.43;102335.66;12260587;19;19935;-86
2023/05/08 02:44:19;;;;;;;;;;;11.10;43.10;;;9.77;45.57;102340.22;12255224;19;19927;-86
2023/05/08 02:48:27;;;;;;;;;;;11.00;43.10;;;9.74;45.47;102344.63;12258771;19;19919;-85
2023/05/08 02:52:41;;;;;;;;;;;11.00;43.00;;;9.62;45.45;102349.31;12256412;19;19946;-86
2023/05/08 02:57:13;;;;;;;;;;;10.90;43.00;;;9.47;45.50;102334.88;12254503;19;19931;-86
2023/05/08 03:01:24;;;;;;;;;;;10.80;43.10;;;9.45;45.57;102347.97;12255041;19;20433;-86
2023/05/08 03:05:37;;;;;;;;;;;10.80;43.20;;;9.34;45.52;102328.25;12252582;19;19926;-86
2023/05/08 03:09:43;;;;;;;;;;;10.70;43.30;;;8.93;45.75;102270.16;12254435;19;19953;-86
2023/05/08 03:13:45;;;;;;;;;;;10.60;43.30;;;9.26;45.72;102331.03;12256000;19;19923;-86
2023/05/08 03:17:49;;;;;;;;;;;10.60;43.60;;;9.22;45.63;102334.63;12252198;19;19923;-86
2023/05/08 03:21:53;;;;;;;;;;;10.50;43.20;;;8.94;45.58;102298.78;12255651;19;19919;-86
2023/05/08 03:25:57;;;;;;;;;;;10.50;43.20;;;9.08;45.72;102332.34;12252046;19;20578;-86
2023/05/08 03:30:00;;;;;;;;;;;10.50;43.20;;;8.83;45.61;102316.38;12254776;19;19915;-85
2023/05/08 03:34:03;;;;;;;;;;;10.40;43.20;;;8.98;45.89;102349.06;12253617;19;20654;-86
2023/05/08 03:38:06;;;;;;;;;;;10.30;43.20;;;8.99;45.97;102350.78;12248155;19;20038;-86
2023/05/08 03:42:09;;;;;;;;;;;10.30;43.30;;;8.90;46.06;102354.44;12254544;19;19925;-86
2023/05/08 03:46:11;;;;;;;;;;;10.20;43.40;;;8.84;45.89;102350.22;12250051;19;19923;-85
2023/05/08 03:50:14;;;;;;;;;;;10.20;43.50;;;8.87;45.91;102349.31;12253842;19;19919;-86
2023/05/08 03:54:16;;;;;;;;;;;10.20;43.50;;;8.86;46.11;102358.88;12252985;19;19919;-86
2023/05/08 03:58:40;;;;;;;;;;;10.10;43.60;;;8.84;46.00;102360.66;12253521;19;19936;-86
2023/05/08 04:02:49;;;;;;;;;;;10.10;43.80;;;8.70;46.18;102347.09;12254710;19;19918;-86
2023/05/08 04:07:18;;;;;;;;;;;10.20;44.60;;;8.81;46.18;102376.34;12252934;19;19930;-84
2023/05/08 04:11:32;;;;;;;;;;;10.10;44.30;;;8.80;46.14;102385.06;12253738;19;20242;-86
2023/05/08 04:15:38;;;;;;;;;;;10.10;44.20;;;8.75;46.30;102379.09;12248608;19;19940;-86
2023/05/08 04:19:45;;;;;;;;;;;10.10;44.80;;;8.84;46.25;102384.09;12256045;19;19915;-86
2023/05/08 04:23:50;;;;;;;;;;;10.10;45.40;;;8.77;46.37;102379.06;12253160;19;19927;-87
2023/05/08 04:27:53;;;;;;;;;;;10.10;44.80;;;8.82;46.51;102392.84;12253398;19;19982;-85
2023/05/08 04:31:56;;;;;;;;;;;10.10;44.80;;;8.85;46.54;102403.19;12250662;19;20265;-87
2023/05/08 04:36:01;;;;;;;;;;;10.50;44.90;;;8.85;46.48;102393.63;12253217;19;20313;-86
2023/05/08 04:40:04;;;;;;;;;;;10.20;44.80;;;8.93;46.37;102401.28;12254661;19;19918;-87
2023/05/08 04:44:07;;;;;;;;;;;10.30;44.60;;;8.96;46.52;102406.41;12259050;19;19979;-85
2023/05/08 04:48:09;;;;;;;;;;;10.30;44.60;;;8.88;46.58;102391.84;12253140;19;19923;-86
2023/05/08 04:52:10;;;;;;;;;;;10.50;45.40;;;9.00;46.67;102415.06;12257313;19;19929;-86
2023/05/08 04:56:14;;;;;;;;;;;10.20;44.50;;;8.99;46.78;102421.13;12253848;19;19930;-87
2023/05/08 05:00:16;;;;;;;;;;;10.40;44.60;;;9.05;46.60;102429.69;12253556;19;19923;-86
2023/05/08 05:04:18;;;;;;;;;;;10.40;44.80;;;8.84;46.79;102386.69;12252597;19;19926;-87
2023/05/08 05:08:20;;;;;;;;;;;10.50;44.50;;;9.10;46.76;102427.00;12257509;19;20555;-87
2023/05/08 05:12:22;;;;;;;;;;;10.50;44.60;;;9.13;46.76;102423.44;12259290;19;19922;-87
2023/05/08 05:16:24;;;;;;;;;;;10.50;45.00;;;9.10;46.76;102419.19;12249864;19;19970;-87
2023/05/08 05:20:25;;;;;;;;;;;10.60;45.30;;;9.10;46.89;102416.56;12256122;19;21088;-87
2023/05/08 05:24:27;;;;;;;;;;;10.90;45.20;;;9.26;46.95;102435.31;12256080;19;19964;-87
2023/05/08 05:28:31;;;;;;;;;;;10.70;44.50;;;9.27;46.95;102430.06;12250389;19;19910;-86
2023/05/08 05:32:33;;;;;;;;;;;10.70;44.80;;;9.35;46.92;102431.66;12260592;19;19929;-86
2023/05/08 05:36:35;;;;;;;;;;;10.80;45.30;;;9.41;47.08;102437.59;12263447;19;19939;-86
2023/05/08 05:40:37;;;;;;;;;;;10.90;44.90;;;9.52;47.18;102432.13;12268853;19;20316;-87
2023/05/08 05:44:39;;;;;;;;;;;11.00;45.60;;;9.58;47.07;102426.75;12262802;19;19919;-87
2023/05/08 05:48:40;;;;;;;;;;;11.00;46.10;;;9.69;47.20;102424.78;12265562;19;20259;-86
2023/05/08 05:52:44;;;;;;;;;;;11.20;45.50;;;9.97;47.33;102448.41;12266349;19;19919;-86
2023/05/08 05:56:45;;;;;;;;;;;11.40;45.40;;;10.11;47.39;102445.47;12262803;19;19915;-87
2023/05/08 06:00:47;;;;;;;;;;;11.70;45.90;;;10.29;47.24;102456.34;12266615;19;19934;-87
2023/05/08 06:04:50;;;;;;;;;;;11.60;46.00;;;10.16;47.39;102404.44;12260285;19;19943;-86
2023/05/08 06:08:52;;;;;;;;;;;11.80;46.50;;;10.59;47.34;102449.47;12262902;19;20228;-87
2023/05/08 06:12:54;;;;;;;;;;;11.90;46.00;;;10.68;47.22;102437.91;12255295;19;19918;-87
2023/05/08 06:16:56;;;;;;;;;;;12.10;45.80;;;10.91;47.32;102448.56;12254450;19;19919;-86
2023/05/08 06:20:59;;;;;;;;;;;12.30;46.00;;;11.03;47.40;102442.97;12250945;19;19930;-88
2023/05/08 06:25:01;;;;;;;;;;;12.50;46.10;;;11.18;47.38;102443.41;12255344;19;19921;-87
2023/05/08 06:29:03;;;;;;;;;;;12.60;45.40;;;11.03;47.19;102397.66;12259369;19;19921;-87
2023/05/08 06:33:04;;;;;;;;;;;12.70;45.10;;;11.44;47.25;102453.06;12257855;19;19935;-87
2023/05/08 06:37:06;;;;;;;;;;;12.90;45.40;;;11.52;47.11;102449.31;12255018;19;20326;-86
2023/05/08 06:41:08;;;;;;;;;;;13.00;44.80;;;11.57;47.16;102437.84;12253914;19;19950;-86
2023/05/08 06:45:09;;;;;;;;;;;13.10;45.00;;;11.50;47.23;102416.25;12243572;19;19982;-86
2023/05/08 06:49:11;;;;;;;;;;;13.20;44.70;;;11.80;47.24;102447.56;12253709;19;19929;-86
2023/05/08 06:53:12;;;;;;;;;;;13.30;44.80;;;11.87;47.28;102436.03;12256302;19;19926;-87
2023/05/08 06:57:15;;;;;;;;;;;13.40;44.60;;;12.07;47.02;102459.81;12252608;19;20527;-86
2023/05/08 07:01:16;;;;;;;;;;;13.50;44.40;;;11.95;47.13;102421.78;12254639;19;19929;-86
2023/05/08 07:05:18;;;;;;;;;;;13.60;44.10;;;12.20;47.05;102452.38;12245777;19;19922;-87
2023/05/08 07:09:20;;;;;;;;;;;13.70;43.50;;;12.34;47.11;102454.50;12254886;19;19915;-86
2023/05/08 07:13:21;;;;;;;;;;;13.80;43.50;;;12.48;46.97;102461.91;12254066;19;19934;-86
2023/05/08 07:17:23;;;;;;;;;;;13.90;43.30;;;12.49;47.07;102438.25;12252525;19;20437;-86
2023/05/08 07:21:25;;;;;;;;;;;14.00;42.70;;;12.59;47.07;102439.63;12251517;19;19915;-88
2023/05/08 07:25:26;;;;;;;;;;;14.10;43.20;;;12.75;46.95;102447.81;12249535;19;20245;-85
2023/05/08 07:29:27;;;;;;;;;;;14.20;43.20;;;12.98;46.88;102446.94;12254859;19;19981;-86
2023/05/08 07:33:29;;;;;;;;;;;14.40;42.90;;;13.16;46.88;102448.00;12254272;19;19919;-85
2023/05/08 07:37:31;;;;;;;;;;;14.50;43.10;;;13.32;46.80;102444.84;12244916;19;19911;-86
2023/05/08 07:41:34;;;;;;;;;;;14.70;42.20;;;13.47;46.92;102438.97;12251180;19;20287;-85
2023/05/08 07:45:36;;;;;;;;;;;14.80;42.90;;;13.54;46.86;102424.69;12244186;19;19949;-86
2023/05/08 07:49:38;;;;;;;;;;;15.00;42.40;;;13.86;46.78;102443.53;12246980;19;19915;-86
2023/05/08 07:53:39;;;;;;;;;;;15.20;42.50;;;14.04;46.78;102428.75;12251824;19;20257;-87
2023/05/08 07:57:42;;;;;;;;;;;15.30;42.00;;;14.24;46.59;102443.69;12247809;19;20246;-87
2023/05/08 08:01:46;;;;;;;;;;;15.50;40.60;;;14.32;46.51;102424.03;12255476;19;19915;-86
2023/05/08 08:05:47;;;;;;;;;;;15.80;41.10;;;14.47;46.37;102422.50;12248454;19;19953;-87
2023/05/08 08:09:49;;;;;;;;;;;15.90;41.60;;;14.59;46.31;102411.47;12254980;19;19943;-85
2023/05/08 08:13:50;;;;;;;;;;;16.10;40.40;;;14.76;46.33;102418.59;12249597;19;19915;-86
2023/05/08 08:17:52;;;;;;;;;;;16.20;40.00;;;15.05;46.37;102435.66;12246377;19;19922;-87
2023/05/08 08:21:53;;;;;;;;;;;16.40;40.60;;;15.16;46.06;102422.00;12249944;19;20301;-86
2023/05/08 08:25:55;;;;;;;;;;;16.60;39.80;;;15.35;45.99;102443.03;12248536;19;19953;-86
2023/05/08 08:30:00;;;;;;;;;;;16.70;38.70;;;15.28;45.78;102399.50;12250583;19;20340;-86
2023/05/08 08:34:02;;;;;;;;;;;16.80;38.80;;;15.59;45.72;102427.84;12254729;19;19923;-87
2023/05/08 08:38:03;;;;;;;;;;;17.00;37.80;;;15.73;45.77;102427.19;12250949;19;20245;-87
2023/05/08 08:42:05;;;;;;;;;;;17.10;37.60;;;15.83;45.65;102428.44;12252610;19;19958;-87
2023/05/08 08:46:13;;;;;;;;;;;17.20;38.90;;;15.78;45.49;102401.47;12251102;19;20333;-86
2023/05/08 08:50:15;;;;;;;;;;;17.30;37.60;;;16.07;45.25;102421.09;12256861;19;19923;-87
2023/05/08 08:54:19;;;;;;;;;;;17.50;36.70;;;16.21;45.16;102433.56;12253554;19;19919;-86
2023/05/08 08:58:31;;;;;;;;;;;17.60;39.00;;;16.26;45.18;102407.81;12247561;19;20447;-86
2023/05/08 09:02:33;;;;;;;;;;;17.70;38.20;;;16.44;45.12;102420.94;12250694;19;19994;-88
2023/05/08 09:06:36;;;;;;;;;;;17.80;39.00;;;16.55;45.12;102437.03;12251519;19;19922;-87
2023/05/08 09:10:37;;;;;;;;;;;17.90;39.00;;;16.71;45.08;102424.75;12264971;19;19919;-87
2023/05/08 09:14:39;;;;;;;;;;;18.00;36.10;;;16.71;45.12;102401.00;12264975;19;19915;-87
2023/05/08 09:18:40;;;;;;;;;;;18.20;39.60;;;16.91;44.83;102418.44;12264301;19;19914;-87
2023/05/08 09:22:43;;;;;;;;;;;18.30;36.20;;;16.72;44.60;102365.78;12263063;19;19919;-87
2023/05/08 09:26:45;;;;;;;;;;;18.30;37.90;;;17.07;44.59;102405.25;12260848;19;19915;-87
2023/05/08 09:30:58;;;;;;;;;;;18.40;35.60;;;17.20;44.49;102418.59;12264031;19;19926;-88
2023/05/08 09:35:00;;;;;;;;;;;18.50;37.70;;;17.15;44.60;102373.13;12259655;19;19939;-87
2023/05/08 09:39:02;;;;;;;;;;;18.60;36.70;;;17.45;44.16;102408.34;12263761;19;19915;-87
2023/05/08 09:43:15;;;;;;;;;;;18.70;35.40;;;17.58;43.91;102394.41;12262041;19;19987;-86
2023/05/08 09:47:18;;;;;;;;;;;18.80;34.80;;;17.66;43.88;102387.78;12259862;19;19918;-87
2023/05/08 09:51:21;;;;;;;;;;;18.90;35.70;;;17.77;44.09;102396.84;12261372;19;20283;-87
2023/05/08 09:55:22;;;;;;;;;;;19.10;37.80;;;17.88;43.99;102391.81;12255740;19;20005;-87
2023/05/08 09:59:26;;;;;;;;;;;19.20;38.10;;;18.01;43.65;102386.63;12256994;19;19923;-86
2023/05/08 10:03:48;;;;;;;;;;;19.30;33.40;;;18.11;43.65;102385.97;12257293;19;19927;-87
2023/05/08 10:07:49;;;;;;;;;;;19.50;35.90;;;18.12;43.92;102366.56;12249054;19;19922;-85
2023/05/08 10:11:53;;;;;;;;;;;19.50;37.80;;;18.32;43.76;102375.91;12254313;19;19925;-85
2023/05/08 10:15:55;;;;;;;;;;;19.70;37.00;;;18.54;43.50;102388.63;12249222;19;20247;-86
2023/05/08 10:19:59;;;;;;;;;;;19.80;33.20;;;18.67;43.60;102387.88;12249283;19;20270;-86
2023/05/08 10:24:03;;;;;;;;;;;20.00;36.00;;;18.81;43.34;102379.94;12253900;19;19927;-86
2023/05/08 10:28:30;;;;;;;;;;;20.10;35.30;;;18.83;42.96;102383.34;12251729;19;19979;-85
2023/05/08 10:32:57;;;;;;;;;;;20.10;36.40;;;18.91;43.26;102385.53;12257458;19;19951;-86
2023/05/08 10:36:58;;;;;;;;;;;20.20;38.00;;;18.97;42.97;102383.31;12255056;19;19925;-86
2023/05/08 10:41:00;;;;;;;;;;;20.30;36.60;;;18.96;42.81;102362.25;12257027;19;19911;-87
2023/05/08 10:45:05;;;;;;;;;;;20.40;35.00;;;19.04;42.69;102364.38;12255192;19;20329;-86
2023/05/08 10:49:15;;;;;;;;;;;20.40;34.10;;;19.15;42.61;102367.19;12254668;19;20269;-87
2023/05/08 10:53:26;;;;;;;;;;;20.50;32.40;;;19.14;42.52;102360.19;12255240;19;19925;-86
2023/05/08 10:57:28;;;;;;;;;;;20.50;34.50;;;19.21;42.29;102354.38;12252406;19;19936;-86
2023/05/08 11:01:29;;;;;;;;;;;20.60;33.90;;;19.34;42.28;102357.09;12252808;19;19914;-86
2023/05/08 11:05:44;;;;;;;;;;;20.60;34.20;;;19.45;42.19;102359.88;12252042;19;19922;-87
2023/05/08 11:09:46;;;;;;;;;;;20.70;34.60;;;19.53;41.86;102353.22;12251884;19;19923;-87
2023/05/08 11:13:54;;;;;;;;;;;20.80;35.20;;;19.56;41.76;102351.19;12252729;19;19919;-88
2023/05/08 11:17:56;;;;;;;;;;;20.80;34.80;;;19.59;41.83;102344.84;12247717;19;19919;-87
2023/05/08 11:22:13;;;;;;;;;;;20.90;34.50;;;19.73;41.72;102358.03;12251967;19;19919;-87
2023/05/08 11:26:15;;;;;;;;;;;21.00;35.60;;;19.79;41.60;102357.59;12248515;19;20356;-87
2023/05/08 11:30:31;;;;;;;;;;;21.00;33.80;;;19.86;41.46;102343.00;12254333;19;20309;-87
2023/05/08 11:34:42;;;;;;;;;;;21.10;34.70;;;19.89;41.29;102342.78;12251204;19;19935;-87
2023/05/08 11:39:14;;;;;;;;;;;21.10;32.00;;;19.92;41.03;102346.19;12255082;19;19931;-87
2023/05/08 11:43:37;;;;;;;;;;;21.20;35.10;;;19.96;41.05;102342.38;12250106;19;19990;-87
2023/05/08 11:47:43;;;;;;;;;;;21.20;32.30;;;19.97;40.82;102315.72;12247368;19;19911;-87
2023/05/08 11:51:47;;;;;;;;;;;21.30;35.40;;;20.14;40.87;102325.16;12251312;19;19911;-87
2023/05/08 11:55:51;;;;;;;;;;;21.40;31.80;;;20.15;40.73;102326.88;12247731;19;19922;-88
2023/05/08 11:59:52;;;;;;;;;;;21.40;34.10;;;20.15;40.58;102300.34;12251973;19;19978;-87
2023/05/08 12:04:01;;;;;;;;;;;21.50;35.20;;;20.22;40.77;102301.59;12248803;19;19915;-87
2023/05/08 12:08:05;;;;;;;;;;;21.50;34.60;;;20.36;40.45;102315.69;12247556;19;19987;-88
2023/05/08 12:12:06;;;;;;;;;;;21.60;31.80;;;20.38;40.28;102316.44;12251616;19;19947;-87
2023/05/08 12:16:09;;;;;;;;;;;21.60;29.60;;;20.39;39.95;102308.38;12248256;19;19922;-87
2023/05/08 12:20:16;;;;;;;;;;;21.70;33.80;;;20.24;39.90;102270.50;12251884;19;19922;-87
2023/05/08 12:24:21;;;;;;;;;;;21.70;33.40;;;20.47;40.16;102292.75;12250493;19;19927;-88
2023/05/08 12:28:23;;;;;;;;;;;21.80;31.40;;;20.56;39.77;102304.53;12253808;19;20020;-87
2023/05/08 12:32:25;;;;;;;;;;;21.80;33.20;;;20.64;39.92;102312.78;12249725;19;20330;-87
2023/05/08 12:36:27;;;;;;;;;;;21.80;34.20;;;20.52;39.89;102281.78;12247941;19;19986;-88
2023/05/08 12:40:34;;;;;;;;;;;21.90;33.70;;;20.70;39.50;102299.03;12247957;19;19935;-87
2023/05/08 12:44:35;;;;;;;;;;;21.90;32.10;;;20.82;39.91;102309.72;12244863;19;19919;-87
2023/05/08 12:48:37;;;;;;;;;;;22.00;35.30;;;20.83;39.99;102283.06;12251417;19;19910;-87
2023/05/08 12:52:39;;;;;;;;;;;22.00;32.90;;;20.93;39.38;102293.88;12250045;19;19919;-87
2023/05/08 12:56:43;;;;;;;;;;;22.10;34.70;;;20.86;39.71;102266.91;12243022;19;20318;-86
2023/05/08 13:00:47;;;;;;;;;;;22.20;33.60;;;21.03;39.27;102292.19;12246953;19;19994;-86
2023/05/08 13:04:53;;;;;;;;;;;22.30;31.40;;;21.10;39.35;102279.31;12242097;19;19958;-87
2023/05/08 13:08:54;;;;;;;;;;;22.30;31.60;;;21.19;39.36;102275.97;12247086;19;19919;-87
2023/05/08 13:12:56;;;;;;;;;;;22.30;33.30;;;21.22;39.39;102275.72;12247907;19;19923;-86
2023/05/08 13:16:58;;;;;;;;;;;22.40;34.60;;;21.04;39.33;102235.47;12241668;19;19915;-86
2023/05/08 13:21:00;;;;;;;;;;;22.50;34.20;;;21.23;38.83;102255.34;12242040;19;19925;-86
2023/05/08 13:25:02;;;;;;;;;;;22.50;30.00;;;21.24;38.92;102255.22;12240870;19;20731;-87
2023/05/08 13:29:04;;;;;;;;;;;22.50;29.90;;;21.34;38.75;102253.56;12244112;19;19918;-86
2023/05/08 13:33:05;;;;;;;;;;;22.50;32.80;;;21.30;38.81;102230.81;12245346;19;20265;-87
2023/05/08 13:37:06;;;;;;;;;;;22.50;29.10;;;21.43;38.80;102239.56;12242162;19;19974;-87
2023/05/08 13:41:08;;;;;;;;;;;22.60;31.60;;;21.49;38.54;102248.88;12242743;19;19982;-87
2023/05/08 13:45:13;;;;;;;;;;;22.70;32.30;;;21.52;38.20;102240.69;12241694;19;19911;-87
2023/05/08 13:49:14;;;;;;;;;;;22.70;32.20;;;21.56;38.25;102238.63;12244984;19;19914;-87
2023/05/08 13:53:16;;;;;;;;;;;22.70;32.70;;;21.57;38.21;102233.19;12248854;19;19915;-87
2023/05/08 13:57:18;;;;;;;;;;;22.70;31.80;;;21.51;38.45;102212.41;12252905;19;19926;-87
2023/05/08 14:01:19;;;;;;;;;;;22.80;32.80;;;21.57;37.91;102219.88;12257211;19;19944;-87
2023/05/08 14:05:20;;;;;;;;;;;22.80;31.90;;;21.53;37.96;102210.47;12254021;19;19919;-87
2023/05/08 14:09:22;;;;;;;;;;;22.80;33.70;;;21.55;38.23;102200.56;12257240;19;19923;-87
2023/05/08 14:13:24;;;;;;;;;;;22.70;29.60;;;21.58;37.91;102189.69;12256390;19;19919;-86
2023/05/08 14:17:25;;;;;;;;;;;22.80;33.20;;;21.64;38.09;102197.19;12241647;19;19934;-87
2023/05/08 14:21:27;;;;;;;;;;;22.90;32.70;;;21.58;37.74;102188.84;12258702;19;19919;-87
2023/05/08 14:25:29;;;;;;;;;;;22.90;32.50;;;21.52;37.49;102176.91;12250103;19;19919;-87
2023/05/08 14:29:32;;;;;;;;;;;22.90;28.60;;;21.61;37.19;102185.94;12258865;19;19911;-87
2023/05/08 14:33:33;;;;;;;;;;;22.90;31.60;;;21.69;37.57;102193.34;12256428;19;20585;-87
2023/05/08 14:37:35;;;;;;;;;;;22.80;31.60;;;21.47;37.61;102141.84;12247899;19;19915;-87
2023/05/08 14:41:38;;;;;;;;;;;22.90;31.40;;;21.75;37.06;102183.03;12257701;19;19929;-87
2023/05/08 14:45:40;;;;;;;;;;;22.90;32.20;;;21.73;36.91;102178.81;12252039;19;19923;-87
2023/05/08 14:49:42;;;;;;;;;;;22.90;30.60;;;21.50;37.05;102146.94;12251931;19;19925;-86
2023/05/08 14:53:44;;;;;;;;;;;22.80;31.10;;;21.68;37.11;102178.31;12257163;19;20242;-86
2023/05/08 14:57:46;;;;;;;;;;;22.80;30.40;;;21.60;37.06;102161.19;12251046;19;20333;-87
2023/05/08 15:01:47;;;;;;;;;;;22.80;30.20;;;21.65;36.82;102177.59;12257206;19;20330;-87
2023/05/08 15:05:49;;;;;;;;;;;22.80;31.30;;;21.72;36.60;102177.13;12251879;19;19926;-87
2023/05/08 15:09:51;;;;;;;;;;;22.80;32.20;;;21.60;36.99;102161.19;12255558;19;20334;-87
2023/05/08 15:13:53;;;;;;;;;;;22.80;31.20;;;21.65;36.39;102153.66;12254579;19;19915;-87
2023/05/08 15:17:54;;;;;;;;;;;22.80;31.70;;;21.67;36.37;102160.69;12248912;19;19927;-86
2023/05/08 15:21:56;;;;;;;;;;;22.80;32.60;;;21.74;36.72;102181.34;12254216;19;20302;-87
2023/05/08 15:25:57;;;;;;;;;;;22.80;28.30;;;21.75;36.52;102175.06;12251969;19;19926;-87
2023/05/08 15:29:58;;;;;;;;;;;22.80;33.00;;;21.61;36.67;102144.25;12252145;19;19915;-87
2023/05/08 15:34:00;;;;;;;;;;;22.80;31.70;;;21.78;36.65;102173.97;12252976;19;19918;-87
2023/05/08 15:38:04;;;;;;;;;;;22.90;30.60;;;21.88;36.66;102181.09;12251335;19;19923;-86
2023/05/08 15:42:06;;;;;;;;;;;22.90;32.70;;;21.87;36.31;102179.41;12253745;19;20325;-88
2023/05/08 15:46:07;;;;;;;;;;;22.90;32.40;;;21.86;36.61;102171.53;12242604;19;20300;-87
2023/05/08 15:50:09;;;;;;;;;;;22.90;32.30;;;21.90;36.19;102177.44;12254251;19;19918;-87
2023/05/08 15:54:10;;;;;;;;;;;22.90;32.40;;;21.68;36.09;102143.75;12245994;19;19915;-87
2023/05/08 15:58:12;;;;;;;;;;;22.90;32.20;;;21.80;36.30;102167.56;12252912;19;19918;-87
2023/05/08 16:02:13;;;;;;;;;;;22.90;30.50;;;21.52;36.07;102129.03;12246568;19;19927;-87
2023/05/08 16:06:15;;;;;;;;;;;22.80;30.20;;;21.65;36.26;102158.13;12247034;19;19929;-87
2023/05/08 16:10:16;;;;;;;;;;;22.70;31.80;;;21.46;36.30;102126.00;12251851;19;19911;-87
2023/05/08 16:14:18;;;;;;;;;;;22.70;32.40;;;21.37;36.17;102119.59;12250890;19;19926;-87
2023/05/08 16:18:20;;;;;;;;;;;22.60;31.80;;;21.57;36.26;102144.59;12248623;19;19914;-87
2023/05/08 16:22:22;;;;;;;;;;;22.60;33.20;;;21.54;36.33;102148.34;12247730;19;19911;-87
2023/05/08 16:26:23;;;;;;;;;;;22.60;32.90;;;21.42;35.84;102134.22;12246844;19;19915;-86
2023/05/08 16:30:25;;;;;;;;;;;22.50;32.90;;;21.40;35.86;102145.94;12248419;19;20285;-87
2023/05/08 16:34:26;;;;;;;;;;;22.50;32.90;;;21.39;35.83;102146.94;12240827;19;19933;-86
2023/05/08 16:38:29;;;;;;;;;;;22.40;31.80;;;21.06;36.00;102092.75;12250024;19;19993;-87
2023/05/08 16:42:30;;;;;;;;;;;22.40;32.80;;;21.24;36.21;102125.00;12251992;19;19910;-86
2023/05/08 16:46:31;;;;;;;;;;;22.30;29.30;;;21.25;36.08;102128.50;12244304;19;19918;-87
2023/05/08 16:50:33;;;;;;;;;;;22.30;32.10;;;21.25;35.87;102141.78;12248832;19;19919;-87
2023/05/08 16:54:34;;;;;;;;;;;22.30;32.50;;;21.18;36.11;102144.94;12245416;19;19926;-86
2023/05/08 16:58:36;;;;;;;;;;;22.20;31.70;;;21.12;35.79;102137.44;12248152;19;20021;-87
2023/05/08 17:02:37;;;;;;;;;;;22.10;30.20;;;21.00;35.74;102131.25;12247032;19;19906;-87
2023/05/08 17:06:39;;;;;;;;;;;22.10;32.20;;;21.05;35.50;102153.97;12246349;19;19954;-86
2023/05/08 17:10:40;;;;;;;;;;;22.00;32.40;;;20.74;35.73;102104.06;12245874;19;19923;-86
2023/05/08 17:14:42;;;;;;;;;;;22.00;31.10;;;20.88;35.47;102142.00;12248911;19;19915;-86
2023/05/08 17:18:43;;;;;;;;;;;21.90;31.30;;;20.84;35.37;102144.03;12241442;19;19961;-87
2023/05/08 17:22:44;;;;;;;;;;;21.80;31.40;;;20.79;35.66;102135.56;12242875;19;19922;-87
2023/05/08 17:26:46;;;;;;;;;;;21.80;32.30;;;20.75;35.84;102131.44;12238849;19;19946;-87
2023/05/08 17:30:47;;;;;;;;;;;21.70;32.30;;;20.65;35.67;102130.44;12255123;19;19951;-86
2023/05/08 17:34:49;;;;;;;;;;;21.70;32.70;;;20.67;35.58;102136.50;12253623;19;19919;-85
2023/05/08 17:38:50;;;;;;;;;;;21.60;33.10;;;20.36;35.72;102098.97;12255350;19;19923;-86
2023/05/08 17:42:52;;;;;;;;;;;21.60;33.40;;;20.48;35.79;102134.34;12252685;19;19953;-86
2023/05/08 17:46:53;;;;;;;;;;;21.60;33.30;;;20.47;35.69;102140.63;12253228;19;20277;-86
2023/05/08 17:50:54;;;;;;;;;;;21.50;32.70;;;20.37;35.54;102135.16;12258646;19;19922;-87
2023/05/08 17:54:56;;;;;;;;;;;21.40;33.20;;;20.29;35.65;102137.53;12256735;19;20273;-86
2023/05/08 17:58:57;;;;;;;;;;;21.30;32.90;;;20.22;35.80;102134.44;12255390;19;19915;-86
2023/05/08 18:02:58;;;;;;;;;;;21.30;32.00;;;20.17;35.72;102149.03;12256793;19;19915;-86
2023/05/08 18:07:00;;;;;;;;;;;21.20;32.10;;;20.04;35.58;102149.94;12253504;19;19915;-86
2023/05/08 18:11:01;;;;;;;;;;;21.10;32.70;;;19.99;35.49;102153.88;12255715;19;19929;-86
2023/05/08 18:15:06;;;;;;;;;;;21.00;32.50;;;19.82;35.70;102149.75;12250117;19;19950;-86